Lake Dynasty — 3FZB2 — position and weather

sailwx.info

Track history (hours):
 
Tides and Currents Weather Stations Pressure Air Temp Water Temp Dewpoint Dewpoint Depression Visibility Wind Speed Wind Dir Waves Ship Positions

Lake Dynasty

Last reported at 2016-Feb-03 02:22 UTC. Time now 2016-Feb-12 16:17 UTC.
Position S 34°12' E 018°08'.
Warning: this ship's position is 9 days out of date.

Length 182 m; draft 11.1 m.

Type: Cargo ship. MMSI: 370957000.

Date/timePositionNaut miles runAvg speedWind from/ knotsBaromVisibWave heightAir tempDewpointWater temp
2016-Feb-03 02:22S 34°12' E 018°08'1411.6
2016-Feb-03 01:11S 33°59' E 018°04'811.3
2016-Feb-03 00:27S 33°51' E 018°02'1011.1
2016-Feb-02 23:33S 33°41' E 017°58'1111.1
2016-Feb-02 22:34S 33°31' E 017°55'1310.7
2016-Feb-02 21:24S 33°19' E 017°50'1010.5
2016-Feb-02 20:29S 33°09' E 017°49'12 0.6
2016-Feb-01 23:23S 33°01' E 017°59'0 0.0
2016-Feb-01 22:29S 33°01' E 017°59'0 0.0
2016-Feb-01 21:29S 33°01' E 017°59'0 0.0
2016-Feb-01 20:29S 33°01' E 017°59'0 0.0
2016-Feb-01 19:32S 33°01' E 017°59'0 0.0
2016-Feb-01 18:29S 33°01' E 017°59'0 0.0
2016-Feb-01 17:05S 33°01' E 017°59'0 0.0
2016-Feb-01 16:29S 33°01' E 017°59'0 0.0
2016-Feb-01 15:32S 33°01' E 017°59'0 0.0
2016-Feb-01 14:32S 33°01' E 017°59'0 0.0
2016-Feb-01 13:32S 33°01' E 017°59'0 0.0
2016-Feb-01 12:29S 33°01' E 017°59'0 0.0
2016-Feb-01 10:32S 33°01' E 017°59'0 0.0
2016-Feb-01 09:32S 33°01' E 017°59'0 0.0
2016-Feb-01 08:32S 33°01' E 017°59'0 0.0
2016-Feb-01 07:23S 33°01' E 017°59'0 0.0
2016-Feb-01 06:32S 33°01' E 017°59'0 0.0
2016-Feb-01 05:32S 33°01' E 017°59'0 0.0
2016-Feb-01 04:29S 33°01' E 017°59'0 0.0
2016-Feb-01 03:32S 33°01' E 017°59'0 0.0
2016-Feb-01 02:32S 33°01' E 017°59'0 0.0
2016-Feb-01 01:32S 33°01' E 017°59'0 0.0
2016-Feb-01 00:32S 33°01' E 017°59'0 0.0
2016-Jan-31 23:29S 33°01' E 017°59'0 0.0
2016-Jan-31 22:32S 33°01' E 017°59'0 0.0
2016-Jan-31 21:29S 33°01' E 017°59'0 0.0
2016-Jan-31 20:32S 33°01' E 017°59'0 0.0
2016-Jan-31 19:29S 33°01' E 017°59'0 0.0
2016-Jan-31 18:29S 33°01' E 017°59'0 0.0
2016-Jan-29 19:32S 33°01' E 017°59'0 0.0
2016-Jan-29 18:32S 33°01' E 017°59'0 0.0
2016-Jan-29 17:32S 33°01' E 017°59'0 0.0
2016-Jan-29 16:32S 33°01' E 017°59'0 0.0
2016-Jan-29 15:32S 33°01' E 017°59'0 0.0
2016-Jan-29 14:33S 33°01' E 017°59'4 4.0
2016-Jan-29 13:33S 33°04' E 017°56'9 8.7
2016-Jan-29 12:33S 33°07' E 017°46'9 9.2
2016-Jan-29 11:32S 32°60' E 017°39'1010.4
2016-Jan-29 10:33S 32°50' E 017°38'31 0.7
2016-Jan-27 14:07S 32°36' E 018°11'0 0.0
2016-Jan-27 02:31S 32°36' E 018°11'0 0.0
2016-Jan-27 00:31S 32°36' E 018°11'0 0.0
2016-Jan-26 23:25S 32°36' E 018°11'57 2.3
2016-Jan-25 22:27S 33°29' E 017°47'1213.0
2016-Jan-25 21:33S 33°40' E 017°51'1313.1
2016-Jan-25 20:32S 33°53' E 017°57'1313.4
2016-Jan-25 19:32S 34°06' E 018°02'37411.7
2016-Jan-24 11:32S 34°22' E 025°33'5614.0
2016-Jan-24 07:32S 34°14' E 026°41'3415.5
2016-Jan-24 05:22S 34°00' E 027°17'1416.6
2016-Jan-24 04:32S 33°51' E 027°30'1816.7
2016-Jan-24 03:28S 33°40' E 027°46'  
Track history (hours):
 
Tides and Currents Weather Stations Pressure Air Temp Water Temp Dewpoint Dewpoint Depression Visibility Wind Speed Wind Dir Waves Ship Positions

Lake Dynasty

Last reported at 2016-Feb-03 02:22 UTC. Time now 2016-Feb-12 16:17 UTC.
Position S 34°12' E 018°08'.
Warning: this ship's position is 9 days out of date.

Length 182 m; draft 11.1 m.

Type: Cargo ship. MMSI: 370957000.

Date/timePositionNaut miles runAvg speedWind from/ knotsBaromVisibWave heightAir tempDewpointWater temp
2016-Feb-03 02:22S 34°12' E 018°08'1411.6
2016-Feb-03 01:11S 33°59' E 018°04'811.3
2016-Feb-03 00:27S 33°51' E 018°02'1011.1
2016-Feb-02 23:33S 33°41' E 017°58'1111.1
2016-Feb-02 22:34S 33°31' E 017°55'1310.7
2016-Feb-02 21:24S 33°19' E 017°50'1010.5
2016-Feb-02 20:29S 33°09' E 017°49'12 0.6
2016-Feb-01 23:23S 33°01' E 017°59'0 0.0
2016-Feb-01 22:29S 33°01' E 017°59'0 0.0
2016-Feb-01 21:29S 33°01' E 017°59'0 0.0
2016-Feb-01 20:29S 33°01' E 017°59'0 0.0
2016-Feb-01 19:32S 33°01' E 017°59'0 0.0
2016-Feb-01 18:29S 33°01' E 017°59'0 0.0
2016-Feb-01 17:05S 33°01' E 017°59'0 0.0
2016-Feb-01 16:29S 33°01' E 017°59'0 0.0
2016-Feb-01 15:32S 33°01' E 017°59'0 0.0
2016-Feb-01 14:32S 33°01' E 017°59'0 0.0
2016-Feb-01 13:32S 33°01' E 017°59'0 0.0
2016-Feb-01 12:29S 33°01' E 017°59'0 0.0
2016-Feb-01 10:32S 33°01' E 017°59'0 0.0
2016-Feb-01 09:32S 33°01' E 017°59'0 0.0
2016-Feb-01 08:32S 33°01' E 017°59'0 0.0
2016-Feb-01 07:23S 33°01' E 017°59'0 0.0
2016-Feb-01 06:32S 33°01' E 017°59'0 0.0
2016-Feb-01 05:32S 33°01' E 017°59'0 0.0
2016-Feb-01 04:29S 33°01' E 017°59'0 0.0
2016-Feb-01 03:32S 33°01' E 017°59'0 0.0
2016-Feb-01 02:32S 33°01' E 017°59'0 0.0
2016-Feb-01 01:32S 33°01' E 017°59'0 0.0
2016-Feb-01 00:32S 33°01' E 017°59'0 0.0
2016-Jan-31 23:29S 33°01' E 017°59'0 0.0
2016-Jan-31 22:32S 33°01' E 017°59'0 0.0
2016-Jan-31 21:29S 33°01' E 017°59'0 0.0
2016-Jan-31 20:32S 33°01' E 017°59'0 0.0
2016-Jan-31 19:29S 33°01' E 017°59'0 0.0
2016-Jan-31 18:29S 33°01' E 017°59'0 0.0
2016-Jan-29 19:32S 33°01' E 017°59'0 0.0
2016-Jan-29 18:32S 33°01' E 017°59'0 0.0
2016-Jan-29 17:32S 33°01' E 017°59'0 0.0
2016-Jan-29 16:32S 33°01' E 017°59'0 0.0
2016-Jan-29 15:32S 33°01' E 017°59'0 0.0
2016-Jan-29 14:33S 33°01' E 017°59'4 4.0
2016-Jan-29 13:33S 33°04' E 017°56'9 8.7
2016-Jan-29 12:33S 33°07' E 017°46'9 9.2
2016-Jan-29 11:32S 32°60' E 017°39'1010.4
2016-Jan-29 10:33S 32°50' E 017°38'31 0.7
2016-Jan-27 14:07S 32°36' E 018°11'0 0.0
2016-Jan-27 02:31S 32°36' E 018°11'0 0.0
2016-Jan-27 00:31S 32°36' E 018°11'0 0.0
2016-Jan-26 23:25S 32°36' E 018°11'57 2.3
2016-Jan-25 22:27S 33°29' E 017°47'1213.0
2016-Jan-25 21:33S 33°40' E 017°51'1313.1
2016-Jan-25 20:32S 33°53' E 017°57'1313.4
2016-Jan-25 19:32S 34°06' E 018°02'37411.7
2016-Jan-24 11:32S 34°22' E 025°33'5614.0
2016-Jan-24 07:32S 34°14' E 026°41'3415.5
2016-Jan-24 05:22S 34°00' E 027°17'1416.6
2016-Jan-24 04:32S 33°51' E 027°30'1816.7
2016-Jan-24 03:28S 33°40' E 027°46'  

Dump ship's entire track history